Huvudsida
METAR-TAF:

METAR-TAF

Flygplatser :

Joensuu flygplats

Joensuu, Finland

latitud: 62-40N, longitud: 029-38E, höjd: 119 m

Aktuellt väderrapport

Denna rapport gjordes för 32 minuter sedan, klockan 03:20 UTC
Vind 8 kt från sydväst, varierande mellan syd och väst/sydväst
Temperatur 3°C
Fuktighet 87%
Tryck 987 hPa
Sikt 10 km eller mer
Mulet på en höjd av 1400 ft
lätt regn

METAR: EFJO 190320Z 23008KT 190V250 9999 -RA OVC014 03/01 Q0987

Tid: 05:52 (03:52 UTC)

Väderprognos

Denna rapport gjordes för 1 timme och 27 minuter sedan, klockan 02:25 UTC
Prognos gäller från 19 kl. 03 UTC till 19 kl. 12 UTC
Vind 10 kt från sydväst
Sikt 10 km eller mer
Brutna moln på en höjd av 2500 ft
Temporärt
från 19 kl. 03 UTC till 19 kl. 10 UTC
Brutna moln på en höjd av 1200 ft

TAF: EFJO 190225Z 1903/1912 23010KT 9999 BKN025 TEMPO 1903/1910 BKN012

Aktuella väderrapporter och prognoser från 4000 flygplatser (METAR- och TAF-rapporter).

De tillgängliga stationerna syns som gula och röda prickar på kartan.

För musen över prickarna för att se namnen på stationerna.

Klicka sedan för att få väderrapporter och prognoser.

För att ändra kartan: Klicka på de gröna knapparna med ett svart kors på för att zooma in; den gröna knappen med ett streck på för att zooma ut; eller på de gröna pilarna för angränsande kartor.


METAR-TAF: